createdAt,value
2018-05-03T00:00:09.089Z,999.85
2018-05-03T00:01:09.120Z,999.85
2018-05-03T00:02:09.116Z,999.87
2018-05-03T00:03:09.110Z,999.86
2018-05-03T00:04:09.158Z,999.86
2018-05-03T00:05:09.158Z,999.88
2018-05-03T00:06:09.136Z,999.90
2018-05-03T00:07:09.145Z,999.91
2018-05-03T00:08:09.177Z,999.89
2018-05-03T00:09:09.198Z,999.94
2018-05-03T00:10:09.216Z,999.92
2018-05-03T00:11:09.205Z,999.92
2018-05-03T00:12:09.211Z,999.94
2018-05-03T00:13:09.211Z,999.98
2018-05-03T00:14:09.226Z,1000.01
2018-05-03T00:15:09.255Z,1000.01
2018-05-03T00:16:09.256Z,999.99
2018-05-03T00:17:09.243Z,1000.00
2018-05-03T00:18:09.257Z,1000.02
2018-05-03T00:19:09.256Z,1000.06
2018-05-03T00:20:09.278Z,1000.02
2018-05-03T00:21:09.335Z,1000.04
2018-05-03T00:22:09.294Z,1000.09
2018-05-03T00:23:09.393Z,1000.07
2018-05-03T00:24:09.309Z,1000.09
2018-05-03T00:25:09.331Z,1000.09
2018-05-03T00:26:09.386Z,1000.12
2018-05-03T00:27:09.349Z,1000.09
2018-05-03T00:28:09.358Z,1000.10
2018-05-03T00:29:09.372Z,1000.10
2018-05-03T00:30:09.397Z,1000.10
2018-05-03T00:31:09.388Z,1000.10
2018-05-03T00:32:09.395Z,1000.15
2018-05-03T00:33:09.390Z,1000.15
2018-05-03T00:34:09.431Z,1000.15
2018-05-03T00:35:09.424Z,1000.17
2018-05-03T00:36:09.434Z,1000.15
2018-05-03T00:37:09.432Z,1000.17
2018-05-03T00:38:09.469Z,1000.17
2018-05-03T00:39:09.448Z,1000.16
2018-05-03T00:40:09.461Z,1000.18
2018-05-03T00:41:09.464Z,1000.15
2018-05-03T00:42:09.509Z,1000.15
2018-05-03T00:43:09.499Z,1000.17
2018-05-03T00:44:09.515Z,1000.17
2018-05-03T00:45:09.522Z,1000.18
2018-05-03T00:46:09.544Z,1000.20
2018-05-03T00:47:09.553Z,1000.17
2018-05-03T00:48:09.542Z,1000.16
2018-05-03T00:49:09.582Z,1000.18
2018-05-03T00:50:09.552Z,1000.17
2018-05-03T00:51:09.572Z,1000.18
2018-05-03T00:52:09.571Z,1000.22
2018-05-03T00:53:09.585Z,1000.21
2018-05-03T00:54:09.629Z,1000.23
2018-05-03T00:55:09.600Z,1000.20
2018-05-03T00:56:09.616Z,1000.21
2018-05-03T00:57:09.739Z,1000.26
2018-05-03T00:58:09.648Z,1000.25
2018-05-03T00:59:09.637Z,1000.23
2018-05-03T01:00:09.667Z,1000.27
2018-05-03T01:01:09.659Z,1000.27
2018-05-03T01:02:09.694Z,1000.29
2018-05-03T01:03:09.696Z,1000.26
2018-05-03T01:04:09.699Z,1000.30
2018-05-03T01:05:09.697Z,1000.30
2018-05-03T01:06:09.716Z,1000.31
2018-05-03T01:07:09.731Z,1000.28
2018-05-03T01:08:09.734Z,1000.31
2018-05-03T01:09:09.776Z,1000.28
2018-05-03T01:10:09.742Z,1000.30
2018-05-03T01:11:09.757Z,1000.26
2018-05-03T01:12:09.785Z,1000.30
2018-05-03T01:13:09.844Z,1000.30
2018-05-03T01:14:09.781Z,1000.35
2018-05-03T01:15:09.800Z,1000.34
2018-05-03T01:16:09.797Z,1000.35
2018-05-03T01:17:09.805Z,1000.39
2018-05-03T01:18:09.833Z,1000.38
2018-05-03T01:19:09.850Z,1000.38
2018-05-03T01:20:09.878Z,1000.35
2018-05-03T01:21:09.858Z,1000.36
2018-05-03T01:22:09.855Z,1000.33
2018-05-03T01:23:09.868Z,1000.31
2018-05-03T01:24:09.875Z,1000.26
2018-05-03T01:25:09.884Z,1000.27
2018-05-03T01:26:09.901Z,1000.30
2018-05-03T01:27:09.924Z,1000.29
2018-05-03T01:28:09.990Z,1000.29
2018-05-03T01:29:09.932Z,1000.29
2018-05-03T01:30:09.938Z,1000.32
2018-05-03T01:31:09.946Z,1000.31
2018-05-03T01:32:09.973Z,1000.31
2018-05-03T01:33:09.958Z,1000.34
2018-05-03T01:34:09.977Z,1000.27
2018-05-03T01:35:09.994Z,1000.33
2018-05-03T01:36:10.021Z,1000.29
2018-05-03T01:37:10.001Z,1000.29
2018-05-03T01:38:10.008Z,1000.30
2018-05-03T01:39:10.031Z,1000.28
2018-05-03T01:40:10.109Z,1000.27
2018-05-03T01:41:10.045Z,1000.29
2018-05-03T01:42:10.043Z,1000.29
2018-05-03T01:43:10.075Z,1000.33
2018-05-03T01:44:10.080Z,1000.30
2018-05-03T01:45:10.081Z,1000.32
2018-05-03T01:46:10.116Z,1000.34
2018-05-03T01:47:10.123Z,1000.33
2018-05-03T01:48:10.136Z,1000.36
2018-05-03T01:49:10.154Z,1000.37
2018-05-03T01:50:10.124Z,1000.37
2018-05-03T01:51:10.160Z,1000.33
2018-05-03T01:52:10.158Z,1000.32
2018-05-03T01:53:10.243Z,1000.33
2018-05-03T01:54:10.168Z,1000.34
2018-05-03T01:55:10.172Z,1000.34
2018-05-03T01:56:10.195Z,1000.37
2018-05-03T01:57:10.213Z,1000.40
2018-05-03T01:58:10.196Z,1000.38
2018-05-03T01:59:10.207Z,1000.38
2018-05-03T02:00:10.238Z,1000.41
2018-05-03T02:01:10.231Z,1000.43
2018-05-03T02:02:10.228Z,1000.43
2018-05-03T02:03:10.255Z,1000.45
2018-05-03T02:04:10.247Z,1000.50
2018-05-03T02:05:10.272Z,1000.53
2018-05-03T02:06:10.375Z,1000.51
2018-05-03T02:07:10.272Z,1000.55
2018-05-03T02:08:10.284Z,1000.53
2018-05-03T02:09:10.292Z,1000.54
2018-05-03T02:10:10.309Z,1000.56
2018-05-03T02:11:10.318Z,1000.57
2018-05-03T02:12:10.320Z,1000.53
2018-05-03T02:13:10.332Z,1000.53
2018-05-03T02:14:10.339Z,1000.48
2018-05-03T02:15:10.351Z,1000.46
2018-05-03T02:16:10.359Z,1000.48
2018-05-03T02:17:10.442Z,1000.46
2018-05-03T02:18:10.450Z,1000.46
2018-05-03T02:19:10.404Z,1000.49
2018-05-03T02:20:10.389Z,1000.45
2018-05-03T02:21:10.451Z,1000.48
2018-05-03T02:22:10.432Z,1000.49
2018-05-03T02:23:10.468Z,1000.48
2018-05-03T02:24:10.437Z,1000.48
2018-05-03T02:25:10.446Z,1000.43
2018-05-03T02:26:10.455Z,1000.45
2018-05-03T02:27:10.501Z,1000.44
2018-05-03T02:28:10.468Z,1000.42
2018-05-03T02:29:10.520Z,1000.38
2018-05-03T02:30:10.525Z,1000.41
2018-05-03T02:31:10.499Z,1000.38
2018-05-03T02:32:10.576Z,1000.40
2018-05-03T02:33:10.530Z,1000.44
2018-05-03T02:34:10.557Z,1000.43
2018-05-03T02:35:10.560Z,1000.46
2018-05-03T02:36:10.567Z,1000.50
2018-05-03T02:37:10.574Z,1000.50
2018-05-03T02:38:10.561Z,1000.53
2018-05-03T02:39:10.573Z,1000.60
2018-05-03T02:40:10.616Z,1000.55
2018-05-03T02:41:10.610Z,1000.61
2018-05-03T02:42:10.620Z,1000.59
2018-05-03T02:43:10.621Z,1000.54
2018-05-03T02:44:10.624Z,1000.54
2018-05-03T02:45:10.637Z,1000.55
2018-05-03T02:46:10.656Z,1000.52
2018-05-03T02:47:10.651Z,1000.57
2018-05-03T02:48:10.707Z,1000.58
2018-05-03T02:49:10.664Z,1000.58
2018-05-03T02:50:10.675Z,1000.55
2018-05-03T02:51:10.676Z,1000.54
2018-05-03T02:52:10.703Z,1000.55
2018-05-03T02:53:10.725Z,1000.50
2018-05-03T02:54:10.764Z,1000.50
2018-05-03T02:55:10.721Z,1000.48
2018-05-03T02:56:10.735Z,1000.50
2018-05-03T02:57:10.729Z,1000.50
2018-05-03T02:58:10.759Z,1000.49
2018-05-03T02:59:10.762Z,1000.50
2018-05-03T03:00:10.769Z,1000.48
2018-05-03T03:01:10.773Z,1000.44
2018-05-03T03:02:10.779Z,1000.48
2018-05-03T03:03:10.793Z,1000.45
2018-05-03T03:04:10.829Z,1000.45
2018-05-03T03:05:10.841Z,1000.45
2018-05-03T03:06:10.879Z,1000.41
2018-05-03T03:07:10.854Z,1000.37
2018-05-03T03:08:10.860Z,1000.38
2018-05-03T03:09:10.869Z,1000.34
2018-05-03T03:10:10.932Z,1000.33
2018-05-03T03:11:10.887Z,1000.35
2018-05-03T03:12:10.901Z,1000.35
2018-05-03T03:13:10.918Z,1000.31
2018-05-03T03:14:10.920Z,1000.28
2018-05-03T03:15:10.908Z,1000.30
2018-05-03T03:16:10.916Z,1000.34
2018-05-03T03:17:10.943Z,1000.33
2018-05-03T03:18:10.919Z,1000.35
2018-05-03T03:19:10.928Z,1000.40
2018-05-03T03:20:10.944Z,1000.42
2018-05-03T03:21:10.954Z,1000.41
2018-05-03T03:22:10.974Z,1000.42
2018-05-03T03:23:10.984Z,1000.41
2018-05-03T03:24:11.016Z,1000.44
2018-05-03T03:25:11.006Z,1000.44
2018-05-03T03:26:11.002Z,1000.44
2018-05-03T03:27:11.010Z,1000.44
2018-05-03T03:28:11.036Z,1000.44
2018-05-03T03:29:11.075Z,1000.46
2018-05-03T03:30:11.060Z,1000.46
2018-05-03T03:31:11.061Z,1000.47
2018-05-03T03:32:11.061Z,1000.47
2018-05-03T03:33:11.067Z,1000.51
2018-05-03T03:34:11.076Z,1000.50
2018-05-03T03:35:11.085Z,1000.56
2018-05-03T03:36:11.096Z,1000.58
2018-05-03T03:37:11.095Z,1000.56
2018-05-03T03:38:11.112Z,1000.56
2018-05-03T03:39:11.119Z,1000.56
2018-05-03T03:40:11.134Z,1000.53
2018-05-03T03:41:11.144Z,1000.57
2018-05-03T03:42:11.156Z,1000.57
2018-05-03T03:43:11.182Z,1000.53
2018-05-03T03:44:11.183Z,1000.53
2018-05-03T03:45:11.219Z,1000.55
2018-05-03T03:46:11.229Z,1000.54
2018-05-03T03:47:11.204Z,1000.57
2018-05-03T03:48:11.218Z,1000.58
2018-05-03T03:49:11.244Z,1000.57
2018-05-03T03:50:11.236Z,1000.60
2018-05-03T03:51:11.224Z,1000.56
2018-05-03T03:52:11.234Z,1000.60
2018-05-03T03:53:11.253Z,1000.62
2018-05-03T03:54:11.276Z,1000.61
2018-05-03T03:55:11.351Z,1000.64
2018-05-03T03:56:11.302Z,1000.65
2018-05-03T03:57:11.294Z,1000.68
2018-05-03T03:58:11.307Z,1000.68
2018-05-03T03:59:11.369Z,1000.67
2018-05-03T04:00:11.309Z,1000.70
2018-05-03T04:01:11.359Z,1000.71
2018-05-03T04:02:11.359Z,1000.71
2018-05-03T04:03:11.374Z,1000.70
2018-05-03T04:04:11.375Z,1000.69
2018-05-03T04:05:11.381Z,1000.67
2018-05-03T04:06:11.367Z,1000.69
2018-05-03T04:07:11.370Z,1000.69
2018-05-03T04:08:11.381Z,1000.69
2018-05-03T04:09:11.402Z,1000.73
2018-05-03T04:10:11.412Z,1000.72
2018-05-03T04:11:11.503Z,1000.71
2018-05-03T04:12:11.452Z,1000.70
2018-05-03T04:13:11.457Z,1000.73
2018-05-03T04:14:11.451Z,1000.67
2018-05-03T04:15:11.448Z,1000.64
2018-05-03T04:16:11.459Z,1000.64
2018-05-03T04:17:11.464Z,1000.64
2018-05-03T04:18:11.496Z,1000.61
2018-05-03T04:19:11.502Z,1000.64
2018-05-03T04:20:11.497Z,1000.64
2018-05-03T04:21:11.515Z,1000.66
2018-05-03T04:22:11.579Z,1000.61
2018-05-03T04:23:11.562Z,1000.63
2018-05-03T04:24:11.544Z,1000.67
2018-05-03T04:25:11.571Z,1000.65
2018-05-03T04:26:11.576Z,1000.67
2018-05-03T04:27:11.639Z,1000.70
2018-05-03T04:28:11.572Z,1000.67
2018-05-03T04:29:11.597Z,1000.70
2018-05-03T04:30:11.621Z,1000.72
2018-05-03T04:31:11.605Z,1000.72
2018-05-03T04:32:11.672Z,1000.72
2018-05-03T04:33:11.664Z,1000.74
2018-05-03T04:34:11.655Z,1000.76
2018-05-03T04:35:11.655Z,1000.77
2018-05-03T04:36:11.665Z,1000.81
2018-05-03T04:37:11.652Z,1000.77
2018-05-03T04:38:11.676Z,1000.82
2018-05-03T04:39:11.698Z,1000.84
2018-05-03T04:40:11.706Z,1000.85
2018-05-03T04:41:11.686Z,1000.81
2018-05-03T04:42:11.704Z,1000.83
2018-05-03T04:43:11.724Z,1000.83
2018-05-03T04:44:11.746Z,1000.83
2018-05-03T04:45:11.722Z,1000.82
2018-05-03T04:46:11.739Z,1000.81
2018-05-03T04:47:11.745Z,1000.87
2018-05-03T04:48:11.763Z,1000.89
2018-05-03T04:49:11.766Z,1000.87
2018-05-03T04:50:11.775Z,1000.91
2018-05-03T04:51:11.779Z,1000.92
2018-05-03T04:52:11.801Z,1000.94
2018-05-03T04:53:11.812Z,1000.93
2018-05-03T04:54:11.880Z,1000.94
2018-05-03T04:55:11.825Z,1000.94
2018-05-03T04:56:11.825Z,1000.93
2018-05-03T04:57:11.843Z,1000.91
2018-05-03T04:58:11.846Z,1000.94
2018-05-03T04:59:11.857Z,1000.95
2018-05-03T05:00:11.884Z,1000.91
2018-05-03T05:01:11.875Z,1000.95
2018-05-03T05:02:11.909Z,1000.99
2018-05-03T05:03:11.889Z,1000.96
2018-05-03T05:04:11.920Z,1000.97
2018-05-03T05:06:11.935Z,1001.01
2018-05-03T05:07:11.940Z,1000.98
2018-05-03T05:08:11.938Z,1001.00
2018-05-03T05:09:11.945Z,1001.03
2018-05-03T05:10:11.961Z,1001.03
2018-05-03T05:11:11.962Z,1001.02
2018-05-03T05:12:12.005Z,1001.00
2018-05-03T05:13:12.050Z,1001.05
2018-05-03T05:14:12.007Z,1001.09
2018-05-03T05:15:12.067Z,1001.08
2018-05-03T05:16:12.011Z,1001.13
2018-05-03T05:17:12.036Z,1001.15
2018-05-03T05:18:12.040Z,1001.15
2018-05-03T05:19:12.100Z,1001.17
2018-05-03T05:20:12.093Z,1001.17
2018-05-03T05:21:12.097Z,1001.19
2018-05-03T05:22:12.114Z,1001.20
2018-05-03T05:23:12.074Z,1001.17
2018-05-03T05:24:12.188Z,1001.18
2018-05-03T05:25:12.098Z,1001.19
2018-05-03T05:26:12.133Z,1001.19
2018-05-03T05:27:12.114Z,1001.22
2018-05-03T05:28:12.134Z,1001.24
2018-05-03T05:29:12.160Z,1001.27
2018-05-03T05:30:12.206Z,1001.24
2018-05-03T05:31:12.196Z,1001.24
2018-05-03T05:32:12.160Z,1001.30
2018-05-03T05:33:12.183Z,1001.30
2018-05-03T05:34:12.185Z,1001.30
2018-05-03T05:35:12.205Z,1001.31
2018-05-03T05:36:12.208Z,1001.34
2018-05-03T05:37:12.208Z,1001.34
2018-05-03T05:38:12.244Z,1001.34
2018-05-03T05:39:12.251Z,1001.37
2018-05-03T05:40:12.279Z,1001.35
2018-05-03T05:41:12.288Z,1001.38
2018-05-03T05:42:12.288Z,1001.41
2018-05-03T05:43:12.295Z,1001.37
2018-05-03T05:44:12.305Z,1001.38
2018-05-03T05:45:12.305Z,1001.40
2018-05-03T05:46:12.318Z,1001.42
2018-05-03T05:47:12.325Z,1001.43
2018-05-03T05:48:12.323Z,1001.44
2018-05-03T05:49:12.335Z,1001.47
2018-05-03T05:50:12.351Z,1001.47
2018-05-03T05:51:12.492Z,1001.44
2018-05-03T05:52:12.385Z,1001.49
2018-05-03T05:53:12.404Z,1001.49
2018-05-03T05:54:12.421Z,1001.53
2018-05-03T05:55:12.383Z,1001.54
2018-05-03T05:56:12.416Z,1001.53
2018-05-03T05:57:12.417Z,1001.51
2018-05-03T05:58:12.491Z,1001.58
2018-05-03T05:59:12.432Z,1001.58
2018-05-03T06:00:12.441Z,1001.58
2018-05-03T06:01:12.500Z,1001.59
2018-05-03T06:02:12.457Z,1001.64
2018-05-03T06:03:12.472Z,1001.65
2018-05-03T06:04:12.581Z,1001.65
2018-05-03T06:05:12.484Z,1001.68
2018-05-03T06:06:12.551Z,1001.70
2018-05-03T06:07:12.540Z,1001.69
2018-05-03T06:08:12.561Z,1001.68
2018-05-03T06:09:12.572Z,1001.69
2018-05-03T06:10:12.662Z,1001.69
2018-05-03T06:11:12.569Z,1001.71
2018-05-03T06:12:12.628Z,1001.74
2018-05-03T06:13:12.598Z,1001.78
2018-05-03T06:14:12.590Z,1001.76
2018-05-03T06:15:12.621Z,1001.83
2018-05-03T06:16:12.621Z,1001.84
2018-05-03T06:17:12.629Z,1001.86
2018-05-03T06:18:12.619Z,1001.85
2018-05-03T06:19:12.640Z,1001.90
2018-05-03T06:20:12.636Z,1001.93
2018-05-03T06:21:12.669Z,1001.92
2018-05-03T06:22:12.661Z,1001.94
2018-05-03T06:23:12.692Z,1001.94
2018-05-03T06:24:12.675Z,1001.98
2018-05-03T06:25:12.686Z,1001.96
2018-05-03T06:26:12.705Z,1001.97
2018-05-03T06:27:12.721Z,1002.01
2018-05-03T06:28:12.777Z,1002.01
2018-05-03T06:29:12.786Z,1002.01
2018-05-03T06:30:12.750Z,1002.05
2018-05-03T06:31:12.771Z,1002.02
2018-05-03T06:32:12.805Z,1002.06
2018-05-03T06:33:12.764Z,1002.06
2018-05-03T06:34:12.779Z,1002.07
2018-05-03T06:35:12.796Z,1002.07
2018-05-03T06:36:12.821Z,1002.07
2018-05-03T06:37:12.833Z,1002.05
2018-05-03T06:38:12.881Z,1002.06
2018-05-03T06:39:12.843Z,1002.08
2018-05-03T06:40:12.841Z,1002.08
2018-05-03T06:41:12.855Z,1002.11
2018-05-03T06:42:12.893Z,1002.06
2018-05-03T06:43:12.884Z,1002.12
2018-05-03T06:44:12.885Z,1002.09
2018-05-03T06:45:12.956Z,1002.12
2018-05-03T06:46:12.907Z,1002.15
2018-05-03T06:47:12.925Z,1002.16
2018-05-03T06:48:12.924Z,1002.20
2018-05-03T06:49:12.966Z,1002.19
2018-05-03T06:50:12.945Z,1002.24
2018-05-03T06:51:12.970Z,1002.31
2018-05-03T06:52:12.971Z,1002.29
2018-05-03T06:53:12.992Z,1002.32
2018-05-03T06:54:13.060Z,1002.29
2018-05-03T06:55:12.998Z,1002.24
2018-05-03T06:56:13.009Z,1002.31
2018-05-03T06:57:13.018Z,1002.31
2018-05-03T06:58:13.052Z,1002.27
2018-05-03T06:59:13.083Z,1002.34
2018-05-03T07:00:13.209Z,1002.30
2018-05-03T07:01:13.074Z,1002.36
2018-05-03T07:02:13.100Z,1002.41
2018-05-03T07:03:13.113Z,1002.43
2018-05-03T07:04:13.163Z,1002.46
2018-05-03T07:05:13.116Z,1002.46
2018-05-03T07:06:13.117Z,1002.49
2018-05-03T07:07:13.145Z,1002.52
2018-05-03T07:08:13.138Z,1002.54
2018-05-03T07:09:13.151Z,1002.46
2018-05-03T07:10:13.169Z,1002.48
2018-05-03T07:11:13.168Z,1002.48
2018-05-03T07:12:13.187Z,1002.42
2018-05-03T07:13:13.220Z,1002.47
2018-05-03T07:14:13.211Z,1002.45
2018-05-03T07:15:13.241Z,1002.47
2018-05-03T07:16:13.283Z,1002.46
2018-05-03T07:17:13.269Z,1002.48
2018-05-03T07:18:13.252Z,1002.45
2018-05-03T07:19:13.271Z,1002.51
2018-05-03T07:20:13.276Z,1002.49
2018-05-03T07:21:13.276Z,1002.48
2018-05-03T07:22:13.292Z,1002.51
2018-05-03T07:23:13.534Z,1002.52
2018-05-03T07:24:13.414Z,1002.53
2018-05-03T07:25:13.422Z,1002.55
2018-05-03T07:26:13.367Z,1002.55
2018-05-03T07:27:13.381Z,1002.54
2018-05-03T07:28:13.359Z,1002.59
2018-05-03T07:29:13.401Z,1002.58
2018-05-03T07:30:13.418Z,1002.57
2018-05-03T07:31:13.396Z,1002.58
2018-05-03T07:32:13.406Z,1002.58
2018-05-03T07:33:13.436Z,1002.57
2018-05-03T07:34:13.420Z,1002.60
2018-05-03T07:35:13.441Z,1002.61
2018-05-03T07:36:13.454Z,1002.60
2018-05-03T07:37:13.452Z,1002.65
2018-05-03T07:38:13.461Z,1002.64
2018-05-03T07:39:13.529Z,1002.69
2018-05-03T07:40:13.482Z,1002.66
2018-05-03T07:41:13.495Z,1002.70
2018-05-03T07:42:13.543Z,1002.74
2018-05-03T07:43:13.515Z,1002.75
2018-05-03T07:44:13.533Z,1002.77
2018-05-03T07:45:13.572Z,1002.71
2018-05-03T07:46:13.552Z,1002.74
2018-05-03T07:47:13.609Z,1002.80
2018-05-03T07:48:13.593Z,1002.77
2018-05-03T07:49:13.588Z,1002.80
2018-05-03T07:50:13.610Z,1002.77
2018-05-03T07:51:13.603Z,1002.84
2018-05-03T07:52:13.764Z,1002.85
2018-05-03T07:53:13.667Z,1002.87
2018-05-03T07:54:13.671Z,1002.85
2018-05-03T07:55:13.732Z,1002.87
2018-05-03T07:56:13.672Z,1002.89
2018-05-03T07:57:13.693Z,1002.92
2018-05-03T07:58:13.742Z,1002.93
2018-05-03T07:59:13.709Z,1002.91
2018-05-03T08:00:13.739Z,1002.95
2018-05-03T08:01:13.725Z,1002.98
2018-05-03T08:02:13.732Z,1002.94
2018-05-03T08:03:13.784Z,1002.97
2018-05-03T08:04:13.798Z,1002.92
2018-05-03T08:05:13.856Z,1002.94
2018-05-03T08:06:13.793Z,1002.94
2018-05-03T08:07:13.863Z,1002.94
2018-05-03T08:08:13.819Z,1002.89
2018-05-03T08:09:13.814Z,1002.93
2018-05-03T08:10:13.821Z,1002.91
2018-05-03T08:11:13.832Z,1002.94
2018-05-03T08:12:13.860Z,1002.92
2018-05-03T08:13:13.860Z,1002.92
2018-05-03T08:14:13.878Z,1002.94
2018-05-03T08:16:13.951Z,1002.94
2018-05-03T08:18:13.969Z,1002.89
2018-05-03T08:19:13.945Z,1002.93
2018-05-03T08:20:13.951Z,1002.96
2018-05-03T08:21:13.964Z,1002.91
2018-05-03T08:22:13.982Z,1002.95
2018-05-03T08:23:13.991Z,1002.92
2018-05-03T08:24:14.058Z,1002.94
2018-05-03T08:25:14.005Z,1002.95
2018-05-03T08:26:14.025Z,1002.96
2018-05-03T08:27:14.061Z,1003.00
2018-05-03T08:28:14.040Z,1002.99
2018-05-03T08:29:14.074Z,1003.04
2018-05-03T08:30:14.136Z,1003.00
2018-05-03T08:31:14.139Z,1003.03
2018-05-03T08:32:14.103Z,1003.05
2018-05-03T08:33:14.113Z,1003.08
2018-05-03T08:34:14.152Z,1003.10
2018-05-03T08:35:14.167Z,1003.02
2018-05-03T08:36:14.169Z,1003.10
2018-05-03T08:37:14.182Z,1003.13
2018-05-03T08:38:14.182Z,1003.10
2018-05-03T08:39:14.182Z,1003.13
2018-05-03T08:40:14.192Z,1003.14
2018-05-03T08:41:14.206Z,1003.14
2018-05-03T08:42:14.212Z,1003.11
2018-05-03T08:43:14.379Z,1003.16
2018-05-03T08:44:14.236Z,1003.15
2018-05-03T08:45:14.261Z,1003.16
2018-05-03T08:46:14.318Z,1003.17
2018-05-03T08:47:14.274Z,1003.20
2018-05-03T08:48:14.322Z,1003.22
2018-05-03T08:49:14.323Z,1003.25
2018-05-03T08:50:14.369Z,1003.21
2018-05-03T08:51:14.377Z,1003.23
2018-05-03T08:52:14.372Z,1003.26
2018-05-03T08:53:14.394Z,1003.26
2018-05-03T08:54:14.405Z,1003.27
2018-05-03T08:55:14.402Z,1003.29
2018-05-03T08:56:14.467Z,1003.27
2018-05-03T08:57:14.421Z,1003.34
2018-05-03T08:58:14.425Z,1003.36
2018-05-03T08:59:14.440Z,1003.40
2018-05-03T09:00:14.475Z,1003.38
2018-05-03T09:01:14.483Z,1003.40
2018-05-03T09:02:14.478Z,1003.44
2018-05-03T09:03:14.482Z,1003.46
2018-05-03T09:04:14.502Z,1003.46
2018-05-03T09:05:14.509Z,1003.47
2018-05-03T09:06:14.534Z,1003.45
2018-05-03T09:07:14.561Z,1003.44
2018-05-03T09:08:14.549Z,1003.39
2018-05-03T09:09:14.592Z,1003.44
2018-05-03T09:10:14.581Z,1003.39
2018-05-03T09:11:14.591Z,1003.41
2018-05-03T09:12:14.625Z,1003.40
2018-05-03T09:13:14.636Z,1003.40
2018-05-03T09:14:14.641Z,1003.37
2018-05-03T09:15:14.656Z,1003.34
2018-05-03T09:16:14.671Z,1003.36
2018-05-03T09:17:14.697Z,1003.38
2018-05-03T09:18:14.693Z,1003.34
2018-05-03T09:19:14.750Z,1003.35
2018-05-03T09:20:14.762Z,1003.32
2018-05-03T09:21:14.830Z,1003.35
2018-05-03T09:22:14.812Z,1003.46
2018-05-03T09:23:14.808Z,1003.50
2018-05-03T09:24:14.793Z,1003.54
2018-05-03T09:25:14.831Z,1003.48
2018-05-03T09:26:14.805Z,1003.51
2018-05-03T09:27:14.828Z,1003.57
2018-05-03T09:28:14.837Z,1003.57
2018-05-03T09:29:14.843Z,1003.56
2018-05-03T09:30:14.887Z,1003.57
2018-05-03T09:31:14.889Z,1003.60
2018-05-03T09:32:14.897Z,1003.58
2018-05-03T09:33:14.904Z,1003.60
2018-05-03T09:34:14.977Z,1003.56
2018-05-03T09:35:14.959Z,1003.52
2018-05-03T09:36:14.965Z,1003.54
2018-05-03T09:37:14.977Z,1003.58
2018-05-03T09:38:15.007Z,1003.62
2018-05-03T09:39:15.055Z,1003.64
2018-05-03T09:40:15.022Z,1003.67
2018-05-03T09:41:15.059Z,1003.65
2018-05-03T09:42:15.046Z,1003.74
2018-05-03T09:43:15.118Z,1003.77
2018-05-03T09:44:15.078Z,1003.75
2018-05-03T09:45:15.087Z,1003.84
2018-05-03T09:46:15.095Z,1003.79
2018-05-03T09:47:15.105Z,1003.80
2018-05-03T09:48:15.121Z,1003.81
2018-05-03T09:49:15.148Z,1003.81
2018-05-03T09:50:15.154Z,1003.81
2018-05-03T09:51:15.194Z,1003.80
2018-05-03T09:52:15.188Z,1003.82
2018-05-03T09:53:15.187Z,1003.77
2018-05-03T09:54:15.293Z,1003.79
2018-05-03T09:55:15.234Z,1003.80
2018-05-03T09:56:15.265Z,1003.74
2018-05-03T09:57:15.279Z,1003.72
2018-05-03T09:58:15.278Z,1003.72
2018-05-03T09:59:15.307Z,1003.71
2018-05-03T10:00:15.308Z,1003.70
2018-05-03T10:01:15.303Z,1003.71
2018-05-03T10:02:15.349Z,1003.73
2018-05-03T10:03:15.365Z,1003.75
2018-05-03T10:04:15.357Z,1003.71
2018-05-03T10:05:15.361Z,1003.79
2018-05-03T10:06:15.384Z,1003.77
2018-05-03T10:07:15.397Z,1003.78
2018-05-03T10:08:15.435Z,1003.75
2018-05-03T10:09:15.441Z,1003.76
2018-05-03T10:10:15.449Z,1003.77
2018-05-03T10:11:15.522Z,1003.76
2018-05-03T10:12:15.503Z,1003.77
2018-05-03T10:13:15.595Z,1003.78
2018-05-03T10:14:15.523Z,1003.77
2018-05-03T10:15:15.524Z,1003.75
2018-05-03T10:16:15.535Z,1003.78
2018-05-03T10:17:15.540Z,1003.78
2018-05-03T10:18:15.562Z,1003.78
2018-05-03T10:19:15.579Z,1003.76
2018-05-03T10:20:15.617Z,1003.76
2018-05-03T10:21:15.630Z,1003.86
2018-05-03T10:22:15.630Z,1003.86
2018-05-03T10:23:15.635Z,1003.92
2018-05-03T10:24:15.682Z,1003.93
2018-05-03T10:25:15.680Z,1003.92
2018-05-03T10:26:15.677Z,1003.89
2018-05-03T10:27:15.709Z,1003.93
2018-05-03T10:28:15.721Z,1003.87
2018-05-03T10:29:15.750Z,1003.88
2018-05-03T10:30:15.833Z,1003.81
2018-05-03T10:31:15.782Z,1003.79
2018-05-03T10:32:15.770Z,1003.83
2018-05-03T10:33:15.832Z,1003.84
2018-05-03T10:34:15.815Z,1003.86
2018-05-03T10:35:15.835Z,1003.83
2018-05-03T10:36:15.971Z,1003.88
2018-05-03T10:37:15.883Z,1003.89
2018-05-03T10:38:15.873Z,1003.90
2018-05-03T10:39:15.880Z,1003.91
2018-05-03T10:40:15.911Z,1003.86
2018-05-03T10:41:15.915Z,1003.76
2018-05-03T10:42:15.960Z,1003.80
2018-05-03T10:43:15.951Z,1003.86
2018-05-03T10:44:16.008Z,1003.86
2018-05-03T10:45:15.995Z,1003.85
2018-05-03T10:46:15.996Z,1003.82
2018-05-03T10:47:16.024Z,1003.82
2018-05-03T10:48:16.082Z,1003.76
2018-05-03T10:49:16.055Z,1003.78
2018-05-03T10:50:16.064Z,1003.81
2018-05-03T10:51:16.088Z,1003.80
2018-05-03T10:52:16.092Z,1003.76
2018-05-03T10:53:16.115Z,1003.76
2018-05-03T10:54:16.191Z,1003.76
2018-05-03T10:55:16.135Z,1003.70
2018-05-03T10:56:16.168Z,1003.76
2018-05-03T10:57:16.178Z,1003.83
2018-05-03T10:58:16.221Z,1003.96
2018-05-03T10:59:16.227Z,1004.09
2018-05-03T11:00:16.244Z,1004.06
2018-05-03T11:01:16.254Z,1004.15
2018-05-03T11:02:16.295Z,1004.19
2018-05-03T11:03:16.256Z,1004.23
2018-05-03T11:04:16.285Z,1004.33
2018-05-03T11:05:16.444Z,1004.41
2018-05-03T11:06:16.350Z,1004.40
2018-05-03T11:07:16.329Z,1004.45
2018-05-03T11:08:16.350Z,1004.50
2018-05-03T11:09:16.374Z,1004.56
2018-05-03T11:10:16.422Z,1004.58
2018-05-03T11:11:16.417Z,1004.63
2018-05-03T11:12:16.416Z,1004.64
2018-05-03T11:13:16.449Z,1004.60
2018-05-03T11:14:16.448Z,1004.64
2018-05-03T11:15:16.463Z,1004.69
2018-05-03T11:16:16.500Z,1004.70
2018-05-03T11:17:16.540Z,1004.69
2018-05-03T11:18:16.531Z,1004.79
2018-05-03T11:19:16.545Z,1004.75
2018-05-03T11:20:16.571Z,1004.76
2018-05-03T11:21:16.581Z,1004.82
2018-05-03T11:22:16.607Z,1004.80
2018-05-03T11:23:16.659Z,1004.82
2018-05-03T11:24:16.653Z,1004.91
2018-05-03T11:25:16.691Z,1004.85
2018-05-03T11:26:16.718Z,1004.82
2018-05-03T11:27:16.738Z,1004.80
2018-05-03T11:28:16.744Z,1004.85
2018-05-03T11:29:16.744Z,1004.87
2018-05-03T11:30:16.846Z,1004.79
2018-05-03T11:31:16.893Z,1004.75
2018-05-03T11:32:16.837Z,1004.77
2018-05-03T11:33:16.852Z,1004.78
2018-05-03T11:34:16.936Z,1004.74
2018-05-03T11:35:16.893Z,1004.69
2018-05-03T11:36:16.900Z,1004.62
2018-05-03T11:37:17.020Z,1004.56
2018-05-03T11:38:17.034Z,1004.48
2018-05-03T11:39:17.094Z,1004.44
2018-05-03T11:40:17.007Z,1004.32
2018-05-03T11:41:17.032Z,1004.29
2018-05-03T11:42:17.096Z,1004.27
2018-05-03T11:43:17.107Z,1004.25
2018-05-03T11:44:17.144Z,1004.23
2018-05-03T11:45:17.131Z,1004.25
2018-05-03T11:46:17.241Z,1004.25
2018-05-03T11:47:17.177Z,1004.24
2018-05-03T11:48:17.197Z,1004.21
2018-05-03T11:49:17.248Z,1004.15
2018-05-03T11:50:17.257Z,1004.25
2018-05-03T11:51:17.294Z,1004.17
2018-05-03T11:52:17.293Z,1004.21
2018-05-03T11:53:17.326Z,1003.71
2018-05-03T11:54:17.342Z,1004.22
2018-05-03T11:55:17.422Z,1003.64
2018-05-03T11:56:17.458Z,1003.61
2018-05-03T11:57:17.446Z,1003.59
2018-05-03T11:58:17.451Z,1003.85
2018-05-03T11:59:17.552Z,1004.15
2018-05-03T12:00:17.494Z,1004.13
2018-05-03T12:01:17.544Z,1004.15
2018-05-03T12:02:17.594Z,1004.14
2018-05-03T12:03:17.586Z,1004.16
2018-05-03T12:04:17.616Z,1003.70
2018-05-03T12:05:17.668Z,1004.09
2018-05-03T12:06:17.729Z,1004.10
2018-05-03T12:07:17.724Z,1004.04
2018-05-03T12:08:17.735Z,1004.03
2018-05-03T12:09:17.740Z,1004.03